sensor_id;sensor_type;location;lat;lon;timestamp;temperature;humidity
13326;DHT22;6732;51.044;3.746;2022-09-09T00:00:47;18.10;99.90
13326;DHT22;6732;51.044;3.746;2022-09-09T00:03:19;18.10;99.90
13326;DHT22;6732;51.044;3.746;2022-09-09T00:06:08;18.10;99.90
13326;DHT22;6732;51.044;3.746;2022-09-09T00:09:06;18.10;99.90
13326;DHT22;6732;51.044;3.746;2022-09-09T00:11:51;18.10;99.90
13326;DHT22;6732;51.044;3.746;2022-09-09T00:17:48;18.10;99.90
13326;DHT22;6732;51.044;3.746;2022-09-09T00:22:57;18.10;99.90
13326;DHT22;6732;51.044;3.746;2022-09-09T00:25:39;18.10;99.90
13326;DHT22;6732;51.044;3.746;2022-09-09T00:28:16;18.00;99.90
13326;DHT22;6732;51.044;3.746;2022-09-09T00:30:43;18.00;99.90
13326;DHT22;6732;51.044;3.746;2022-09-09T00:33:16;18.00;99.90
13326;DHT22;6732;51.044;3.746;2022-09-09T00:35:50;18.00;99.90
13326;DHT22;6732;51.044;3.746;2022-09-09T00:38:21;18.00;99.90
13326;DHT22;6732;51.044;3.746;2022-09-09T00:40:56;18.00;99.90
13326;DHT22;6732;51.044;3.746;2022-09-09T00:46:40;18.00;99.90
13326;DHT22;6732;51.044;3.746;2022-09-09T00:49:31;18.00;99.90
13326;DHT22;6732;51.044;3.746;2022-09-09T00:57:28;17.90;99.90
13326;DHT22;6732;51.044;3.746;2022-09-09T01:11:12;17.90;99.90
13326;DHT22;6732;51.044;3.746;2022-09-09T01:13:42;17.80;99.90
13326;DHT22;6732;51.044;3.746;2022-09-09T01:16:11;17.80;99.90
13326;DHT22;6732;51.044;3.746;2022-09-09T01:18:44;17.80;99.90
13326;DHT22;6732;51.044;3.746;2022-09-09T01:21:35;17.80;99.90
13326;DHT22;6732;51.044;3.746;2022-09-09T01:24:35;17.80;99.90
13326;DHT22;6732;51.044;3.746;2022-09-09T01:27:06;17.80;99.90
13326;DHT22;6732;51.044;3.746;2022-09-09T01:29:33;17.80;99.90
13326;DHT22;6732;51.044;3.746;2022-09-09T01:32:01;17.70;99.90
13326;DHT22;6732;51.044;3.746;2022-09-09T01:34:34;17.80;99.90
13326;DHT22;6732;51.044;3.746;2022-09-09T01:37:04;17.80;99.90
13326;DHT22;6732;51.044;3.746;2022-09-09T01:39:33;17.70;99.90
13326;DHT22;6732;51.044;3.746;2022-09-09T01:42:00;17.70;99.90
13326;DHT22;6732;51.044;3.746;2022-09-09T01:44:28;17.70;99.90
13326;DHT22;6732;51.044;3.746;2022-09-09T01:46:55;17.70;99.90
13326;DHT22;6732;51.044;3.746;2022-09-09T01:49:21;17.70;99.90
13326;DHT22;6732;51.044;3.746;2022-09-09T01:51:50;17.70;99.90
13326;DHT22;6732;51.044;3.746;2022-09-09T01:54:18;17.70;99.90
13326;DHT22;6732;51.044;3.746;2022-09-09T02:00:10;17.70;99.90
13326;DHT22;6732;51.044;3.746;2022-09-09T02:03:00;17.60;99.90
13326;DHT22;6732;51.044;3.746;2022-09-09T02:08:36;17.60;99.90
13326;DHT22;6732;51.044;3.746;2022-09-09T02:11:14;17.60;99.90
13326;DHT22;6732;51.044;3.746;2022-09-09T02:13:42;17.60;99.90
13326;DHT22;6732;51.044;3.746;2022-09-09T02:19:02;17.60;99.90
13326;DHT22;6732;51.044;3.746;2022-09-09T02:21:31;17.60;99.90
13326;DHT22;6732;51.044;3.746;2022-09-09T02:24:03;17.60;99.90
13326;DHT22;6732;51.044;3.746;2022-09-09T02:26:31;17.60;99.90
13326;DHT22;6732;51.044;3.746;2022-09-09T02:29:01;17.60;99.90
13326;DHT22;6732;51.044;3.746;2022-09-09T02:31:28;17.60;99.90
13326;DHT22;6732;51.044;3.746;2022-09-09T02:33:58;17.60;99.90
13326;DHT22;6732;51.044;3.746;2022-09-09T02:36:27;17.50;99.90
13326;DHT22;6732;51.044;3.746;2022-09-09T02:38:56;17.50;99.90
13326;DHT22;6732;51.044;3.746;2022-09-09T02:41:33;17.50;99.90
13326;DHT22;6732;51.044;3.746;2022-09-09T02:44:00;17.50;99.90
13326;DHT22;6732;51.044;3.746;2022-09-09T02:52:01;17.50;99.90
13326;DHT22;6732;51.044;3.746;2022-09-09T02:54:31;17.50;99.90
13326;DHT22;6732;51.044;3.746;2022-09-09T02:57:11;17.50;99.90
13326;DHT22;6732;51.044;3.746;2022-09-09T02:59:39;17.50;99.90
13326;DHT22;6732;51.044;3.746;2022-09-09T03:02:05;17.50;99.90
13326;DHT22;6732;51.044;3.746;2022-09-09T03:04:31;17.50;99.90
13326;DHT22;6732;51.044;3.746;2022-09-09T03:06:58;17.50;99.90
13326;DHT22;6732;51.044;3.746;2022-09-09T03:09:24;17.50;99.90
13326;DHT22;6732;51.044;3.746;2022-09-09T03:11:52;17.50;99.90
13326;DHT22;6732;51.044;3.746;2022-09-09T03:14:18;17.50;99.90
13326;DHT22;6732;51.044;3.746;2022-09-09T03:16:47;17.50;99.90
13326;DHT22;6732;51.044;3.746;2022-09-09T03:19:13;17.50;99.90
13326;DHT22;6732;51.044;3.746;2022-09-09T03:21:39;17.50;99.90
13326;DHT22;6732;51.044;3.746;2022-09-09T03:24:06;17.50;99.90
13326;DHT22;6732;51.044;3.746;2022-09-09T03:26:32;17.50;99.90
13326;DHT22;6732;51.044;3.746;2022-09-09T03:28:58;17.50;99.90
13326;DHT22;6732;51.044;3.746;2022-09-09T03:31:26;17.50;99.90
13326;DHT22;6732;51.044;3.746;2022-09-09T03:33:57;17.50;99.90
13326;DHT22;6732;51.044;3.746;2022-09-09T03:36:27;17.50;99.90
13326;DHT22;6732;51.044;3.746;2022-09-09T03:38:54;17.50;99.90
13326;DHT22;6732;51.044;3.746;2022-09-09T03:41:21;17.50;99.90
13326;DHT22;6732;51.044;3.746;2022-09-09T03:43:55;17.50;99.90
13326;DHT22;6732;51.044;3.746;2022-09-09T03:46:23;17.50;99.90
13326;DHT22;6732;51.044;3.746;2022-09-09T03:48:49;17.50;99.90
13326;DHT22;6732;51.044;3.746;2022-09-09T03:51:15;17.50;99.90
13326;DHT22;6732;51.044;3.746;2022-09-09T03:53:42;17.50;99.90
13326;DHT22;6732;51.044;3.746;2022-09-09T03:56:09;17.50;99.90
13326;DHT22;6732;51.044;3.746;2022-09-09T03:58:36;17.50;99.90
13326;DHT22;6732;51.044;3.746;2022-09-09T04:01:05;17.50;99.90
13326;DHT22;6732;51.044;3.746;2022-09-09T04:03:32;17.50;99.90
13326;DHT22;6732;51.044;3.746;2022-09-09T04:06:01;17.50;99.90
13326;DHT22;6732;51.044;3.746;2022-09-09T04:08:27;17.50;99.90
13326;DHT22;6732;51.044;3.746;2022-09-09T04:10:54;17.50;99.90
13326;DHT22;6732;51.044;3.746;2022-09-09T04:13:24;17.40;99.90
13326;DHT22;6732;51.044;3.746;2022-09-09T04:15:55;17.50;99.90
13326;DHT22;6732;51.044;3.746;2022-09-09T04:18:22;17.40;99.90
13326;DHT22;6732;51.044;3.746;2022-09-09T04:20:50;17.50;99.90
13326;DHT22;6732;51.044;3.746;2022-09-09T04:23:16;17.40;99.90
13326;DHT22;6732;51.044;3.746;2022-09-09T04:25:45;17.40;99.90
13326;DHT22;6732;51.044;3.746;2022-09-09T04:28:13;17.40;99.90
13326;DHT22;6732;51.044;3.746;2022-09-09T04:30:39;17.40;99.90
13326;DHT22;6732;51.044;3.746;2022-09-09T04:33:06;17.40;99.90
13326;DHT22;6732;51.044;3.746;2022-09-09T04:35:32;17.40;99.90
13326;DHT22;6732;51.044;3.746;2022-09-09T04:37:58;17.40;99.90
13326;DHT22;6732;51.044;3.746;2022-09-09T04:40:24;17.40;99.90
13326;DHT22;6732;51.044;3.746;2022-09-09T04:42:51;17.40;99.90
13326;DHT22;6732;51.044;3.746;2022-09-09T04:45:17;17.40;99.90
13326;DHT22;6732;51.044;3.746;2022-09-09T04:47:43;17.40;99.90
13326;DHT22;6732;51.044;3.746;2022-09-09T04:50:10;17.40;99.90
13326;DHT22;6732;51.044;3.746;2022-09-09T04:52:36;17.40;99.90
13326;DHT22;6732;51.044;3.746;2022-09-09T04:55:02;17.40;99.90
13326;DHT22;6732;51.044;3.746;2022-09-09T04:57:29;17.40;99.90
13326;DHT22;6732;51.044;3.746;2022-09-09T04:59:58;17.40;99.90
13326;DHT22;6732;51.044;3.746;2022-09-09T05:02:26;17.40;99.90
13326;DHT22;6732;51.044;3.746;2022-09-09T05:04:52;17.40;99.90
13326;DHT22;6732;51.044;3.746;2022-09-09T05:07:18;17.40;99.90
13326;DHT22;6732;51.044;3.746;2022-09-09T05:09:44;17.40;99.90
13326;DHT22;6732;51.044;3.746;2022-09-09T05:12:11;17.40;99.90
13326;DHT22;6732;51.044;3.746;2022-09-09T05:14:37;17.40;99.90
13326;DHT22;6732;51.044;3.746;2022-09-09T05:17:03;17.40;99.90
13326;DHT22;6732;51.044;3.746;2022-09-09T05:19:29;17.40;99.90
13326;DHT22;6732;51.044;3.746;2022-09-09T05:21:56;17.40;99.90
13326;DHT22;6732;51.044;3.746;2022-09-09T05:24:23;17.40;99.90
13326;DHT22;6732;51.044;3.746;2022-09-09T05:26:49;17.40;99.90
13326;DHT22;6732;51.044;3.746;2022-09-09T05:29:15;17.40;99.90
13326;DHT22;6732;51.044;3.746;2022-09-09T05:31:42;17.40;99.90
13326;DHT22;6732;51.044;3.746;2022-09-09T05:34:08;17.40;99.90
13326;DHT22;6732;51.044;3.746;2022-09-09T05:36:34;17.40;99.90
13326;DHT22;6732;51.044;3.746;2022-09-09T05:39:00;17.40;99.90
13326;DHT22;6732;51.044;3.746;2022-09-09T05:41:26;17.40;99.90
13326;DHT22;6732;51.044;3.746;2022-09-09T05:43:54;17.40;99.90
13326;DHT22;6732;51.044;3.746;2022-09-09T05:46:21;17.40;99.90
13326;DHT22;6732;51.044;3.746;2022-09-09T05:48:49;17.40;99.90
13326;DHT22;6732;51.044;3.746;2022-09-09T05:51:24;17.30;99.90
13326;DHT22;6732;51.044;3.746;2022-09-09T05:53:50;17.40;99.90
13326;DHT22;6732;51.044;3.746;2022-09-09T05:56:23;17.40;99.90
13326;DHT22;6732;51.044;3.746;2022-09-09T05:58:50;17.40;99.90
13326;DHT22;6732;51.044;3.746;2022-09-09T06:03:49;17.40;99.90
13326;DHT22;6732;51.044;3.746;2022-09-09T06:06:17;17.40;99.90
13326;DHT22;6732;51.044;3.746;2022-09-09T06:08:44;17.40;99.90
13326;DHT22;6732;51.044;3.746;2022-09-09T06:11:13;17.40;99.90
13326;DHT22;6732;51.044;3.746;2022-09-09T06:13:40;17.40;99.90
13326;DHT22;6732;51.044;3.746;2022-09-09T06:16:11;17.40;99.90
13326;DHT22;6732;51.044;3.746;2022-09-09T06:18:38;17.40;99.90
13326;DHT22;6732;51.044;3.746;2022-09-09T06:21:06;17.40;99.90
13326;DHT22;6732;51.044;3.746;2022-09-09T06:23:33;17.40;99.90
13326;DHT22;6732;51.044;3.746;2022-09-09T06:26:08;17.40;99.90
13326;DHT22;6732;51.044;3.746;2022-09-09T06:28:35;17.40;99.90
13326;DHT22;6732;51.044;3.746;2022-09-09T06:31:04;17.40;99.90
13326;DHT22;6732;51.044;3.746;2022-09-09T06:33:32;17.40;99.90
13326;DHT22;6732;51.044;3.746;2022-09-09T06:36:01;17.40;99.90
13326;DHT22;6732;51.044;3.746;2022-09-09T06:38:27;17.40;99.90
13326;DHT22;6732;51.044;3.746;2022-09-09T06:40:55;17.40;99.90
13326;DHT22;6732;51.044;3.746;2022-09-09T06:43:25;17.40;99.90
13326;DHT22;6732;51.044;3.746;2022-09-09T06:46:06;17.40;99.90
13326;DHT22;6732;51.044;3.746;2022-09-09T06:48:33;17.40;99.90
13326;DHT22;6732;51.044;3.746;2022-09-09T06:51:04;17.40;99.90
13326;DHT22;6732;51.044;3.746;2022-09-09T06:53:30;17.40;99.90
13326;DHT22;6732;51.044;3.746;2022-09-09T06:56:22;17.50;99.90
13326;DHT22;6732;51.044;3.746;2022-09-09T06:58:47;17.50;99.90
13326;DHT22;6732;51.044;3.746;2022-09-09T07:01:16;17.50;99.90
13326;DHT22;6732;51.044;3.746;2022-09-09T07:03:46;17.50;99.90
13326;DHT22;6732;51.044;3.746;2022-09-09T07:06:15;17.50;99.90
13326;DHT22;6732;51.044;3.746;2022-09-09T07:08:43;17.50;99.90
13326;DHT22;6732;51.044;3.746;2022-09-09T07:11:10;17.50;99.90
13326;DHT22;6732;51.044;3.746;2022-09-09T07:13:36;17.50;99.90
13326;DHT22;6732;51.044;3.746;2022-09-09T07:16:07;17.50;99.90
13326;DHT22;6732;51.044;3.746;2022-09-09T07:18:34;17.50;99.90
13326;DHT22;6732;51.044;3.746;2022-09-09T07:21:01;17.50;99.90
13326;DHT22;6732;51.044;3.746;2022-09-09T07:23:28;17.50;99.90
13326;DHT22;6732;51.044;3.746;2022-09-09T07:25:54;17.60;99.90
13326;DHT22;6732;51.044;3.746;2022-09-09T07:28:21;17.60;99.90
13326;DHT22;6732;51.044;3.746;2022-09-09T07:30:59;17.60;99.90
13326;DHT22;6732;51.044;3.746;2022-09-09T07:33:25;17.60;99.90
13326;DHT22;6732;51.044;3.746;2022-09-09T07:35:52;17.60;99.90
13326;DHT22;6732;51.044;3.746;2022-09-09T07:38:19;17.60;99.90
13326;DHT22;6732;51.044;3.746;2022-09-09T07:40:46;17.60;99.90
13326;DHT22;6732;51.044;3.746;2022-09-09T07:43:12;17.70;99.90
13326;DHT22;6732;51.044;3.746;2022-09-09T07:45:38;17.70;99.90
13326;DHT22;6732;51.044;3.746;2022-09-09T07:48:06;17.70;99.90
13326;DHT22;6732;51.044;3.746;2022-09-09T07:50:32;17.70;99.90
13326;DHT22;6732;51.044;3.746;2022-09-09T07:52:58;17.70;99.90
13326;DHT22;6732;51.044;3.746;2022-09-09T07:55:25;17.70;99.90
13326;DHT22;6732;51.044;3.746;2022-09-09T07:57:55;17.70;99.90
13326;DHT22;6732;51.044;3.746;2022-09-09T08:00:22;17.80;99.90
13326;DHT22;6732;51.044;3.746;2022-09-09T08:03:02;17.80;99.90
13326;DHT22;6732;51.044;3.746;2022-09-09T08:08:04;17.80;99.90
13326;DHT22;6732;51.044;3.746;2022-09-09T08:10:34;17.80;99.90
13326;DHT22;6732;51.044;3.746;2022-09-09T08:12:59;17.80;99.90
13326;DHT22;6732;51.044;3.746;2022-09-09T08:15:25;17.80;99.90
13326;DHT22;6732;51.044;3.746;2022-09-09T08:17:51;17.80;99.90
13326;DHT22;6732;51.044;3.746;2022-09-09T08:20:17;17.80;99.90
13326;DHT22;6732;51.044;3.746;2022-09-09T08:22:44;17.80;99.90
13326;DHT22;6732;51.044;3.746;2022-09-09T08:25:09;17.80;99.90
13326;DHT22;6732;51.044;3.746;2022-09-09T08:27:36;17.80;99.90
13326;DHT22;6732;51.044;3.746;2022-09-09T08:30:02;17.80;99.90
13326;DHT22;6732;51.044;3.746;2022-09-09T08:32:28;17.80;99.90
13326;DHT22;6732;51.044;3.746;2022-09-09T08:34:55;17.80;99.90
13326;DHT22;6732;51.044;3.746;2022-09-09T08:37:21;17.80;99.90
13326;DHT22;6732;51.044;3.746;2022-09-09T08:39:47;17.80;99.90
13326;DHT22;6732;51.044;3.746;2022-09-09T08:44:58;17.80;99.90
13326;DHT22;6732;51.044;3.746;2022-09-09T08:50:28;17.80;99.90
13326;DHT22;6732;51.044;3.746;2022-09-09T08:58:19;17.80;99.90
13326;DHT22;6732;51.044;3.746;2022-09-09T09:09:10;17.80;99.90
13326;DHT22;6732;51.044;3.746;2022-09-09T09:11:44;17.80;99.90
13326;DHT22;6732;51.044;3.746;2022-09-09T09:14:25;17.80;99.90
13326;DHT22;6732;51.044;3.746;2022-09-09T09:17:31;17.70;99.90
13326;DHT22;6732;51.044;3.746;2022-09-09T09:19:51;17.70;99.90
13326;DHT22;6732;51.044;3.746;2022-09-09T09:22:23;17.80;99.90
13326;DHT22;6732;51.044;3.746;2022-09-09T09:24:56;17.70;99.90
13326;DHT22;6732;51.044;3.746;2022-09-09T09:27:34;17.80;99.90
13326;DHT22;6732;51.044;3.746;2022-09-09T09:30:12;17.80;99.90
13326;DHT22;6732;51.044;3.746;2022-09-09T09:32:41;17.80;99.90
13326;DHT22;6732;51.044;3.746;2022-09-09T09:35:13;17.80;99.90
13326;DHT22;6732;51.044;3.746;2022-09-09T09:37:41;17.80;99.90
13326;DHT22;6732;51.044;3.746;2022-09-09T09:40:17;17.80;99.90
13326;DHT22;6732;51.044;3.746;2022-09-09T09:43:03;17.90;99.90
13326;DHT22;6732;51.044;3.746;2022-09-09T09:45:43;17.90;99.90
13326;DHT22;6732;51.044;3.746;2022-09-09T09:48:13;17.90;99.90
13326;DHT22;6732;51.044;3.746;2022-09-09T09:53:25;18.00;99.90
13326;DHT22;6732;51.044;3.746;2022-09-09T09:55:59;18.00;99.90
13326;DHT22;6732;51.044;3.746;2022-09-09T09:58:29;18.00;99.90
13326;DHT22;6732;51.044;3.746;2022-09-09T10:00:57;18.00;99.90
13326;DHT22;6732;51.044;3.746;2022-09-09T10:03:26;18.00;99.90
13326;DHT22;6732;51.044;3.746;2022-09-09T10:05:53;18.00;99.90
13326;DHT22;6732;51.044;3.746;2022-09-09T10:08:19;18.00;99.90
13326;DHT22;6732;51.044;3.746;2022-09-09T10:18:45;18.10;99.90
13326;DHT22;6732;51.044;3.746;2022-09-09T10:21:29;18.10;99.90
13326;DHT22;6732;51.044;3.746;2022-09-09T10:27:01;18.10;99.90
13326;DHT22;6732;51.044;3.746;2022-09-09T10:29:59;18.10;99.90
13326;DHT22;6732;51.044;3.746;2022-09-09T10:37:39;18.10;99.90
13326;DHT22;6732;51.044;3.746;2022-09-09T10:40:32;18.20;99.90
13326;DHT22;6732;51.044;3.746;2022-09-09T10:45:49;18.20;99.90
13326;DHT22;6732;51.044;3.746;2022-09-09T10:48:30;18.20;99.90
13326;DHT22;6732;51.044;3.746;2022-09-09T10:51:00;18.20;99.90
13326;DHT22;6732;51.044;3.746;2022-09-09T10:56:21;18.30;99.90
13326;DHT22;6732;51.044;3.746;2022-09-09T10:58:53;18.30;99.90
13326;DHT22;6732;51.044;3.746;2022-09-09T11:01:23;18.30;99.90
13326;DHT22;6732;51.044;3.746;2022-09-09T11:03:55;18.30;99.90
13326;DHT22;6732;51.044;3.746;2022-09-09T11:06:31;18.30;99.90
13326;DHT22;6732;51.044;3.746;2022-09-09T11:08:59;18.30;99.90
13326;DHT22;6732;51.044;3.746;2022-09-09T11:11:36;18.40;99.90
13326;DHT22;6732;51.044;3.746;2022-09-09T11:14:09;18.40;99.90
13326;DHT22;6732;51.044;3.746;2022-09-09T11:16:42;18.40;99.90
13326;DHT22;6732;51.044;3.746;2022-09-09T11:19:34;18.40;99.90
13326;DHT22;6732;51.044;3.746;2022-09-09T11:28:28;18.50;99.90
13326;DHT22;6732;51.044;3.746;2022-09-09T11:31:26;18.60;99.90
13326;DHT22;6732;51.044;3.746;2022-09-09T11:37:12;18.70;99.90
13326;DHT22;6732;51.044;3.746;2022-09-09T11:42:40;18.80;99.90
13326;DHT22;6732;51.044;3.746;2022-09-09T11:47:55;18.80;99.90
13326;DHT22;6732;51.044;3.746;2022-09-09T11:52:48;18.90;99.90
13326;DHT22;6732;51.044;3.746;2022-09-09T11:55:29;18.90;99.90
13326;DHT22;6732;51.044;3.746;2022-09-09T11:58:05;18.90;99.90
13326;DHT22;6732;51.044;3.746;2022-09-09T12:08:42;19.00;99.90
13326;DHT22;6732;51.044;3.746;2022-09-09T12:11:08;19.00;99.90
13326;DHT22;6732;51.044;3.746;2022-09-09T12:13:34;19.00;99.90
13326;DHT22;6732;51.044;3.746;2022-09-09T12:16:03;19.10;99.90
13326;DHT22;6732;51.044;3.746;2022-09-09T12:21:18;19.10;99.90
13326;DHT22;6732;51.044;3.746;2022-09-09T12:23:56;19.10;99.90
13326;DHT22;6732;51.044;3.746;2022-09-09T12:26:26;19.10;99.90
13326;DHT22;6732;51.044;3.746;2022-09-09T12:37:20;19.20;99.90
13326;DHT22;6732;51.044;3.746;2022-09-09T12:39:53;19.20;99.90
13326;DHT22;6732;51.044;3.746;2022-09-09T12:42:21;19.20;99.90
13326;DHT22;6732;51.044;3.746;2022-09-09T12:47:55;19.30;99.90
13326;DHT22;6732;51.044;3.746;2022-09-09T12:50:24;19.30;99.90
13326;DHT22;6732;51.044;3.746;2022-09-09T12:52:56;19.30;99.90
13326;DHT22;6732;51.044;3.746;2022-09-09T12:55:28;19.40;99.90
13326;DHT22;6732;51.044;3.746;2022-09-09T12:57:56;19.40;99.90
13326;DHT22;6732;51.044;3.746;2022-09-09T13:00:25;19.40;99.90
13326;DHT22;6732;51.044;3.746;2022-09-09T13:02:54;19.40;99.90
13326;DHT22;6732;51.044;3.746;2022-09-09T13:05:42;19.40;99.90
13326;DHT22;6732;51.044;3.746;2022-09-09T13:08:12;19.40;99.90
13326;DHT22;6732;51.044;3.746;2022-09-09T13:10:40;19.40;99.90
13326;DHT22;6732;51.044;3.746;2022-09-09T13:13:16;19.40;99.90
13326;DHT22;6732;51.044;3.746;2022-09-09T13:15:54;19.40;99.90
13326;DHT22;6732;51.044;3.746;2022-09-09T13:18:25;19.40;99.90
13326;DHT22;6732;51.044;3.746;2022-09-09T13:20:52;19.40;99.90
13326;DHT22;6732;51.044;3.746;2022-09-09T13:23:19;19.40;99.90
13326;DHT22;6732;51.044;3.746;2022-09-09T13:26:04;19.40;99.90
13326;DHT22;6732;51.044;3.746;2022-09-09T13:28:32;19.40;99.90
13326;DHT22;6732;51.044;3.746;2022-09-09T13:33:44;19.50;99.90
13326;DHT22;6732;51.044;3.746;2022-09-09T13:36:11;19.50;99.90
13326;DHT22;6732;51.044;3.746;2022-09-09T13:38:53;19.50;99.90
13326;DHT22;6732;51.044;3.746;2022-09-09T13:41:34;19.50;99.90
13326;DHT22;6732;51.044;3.746;2022-09-09T13:44:02;19.60;99.90
13326;DHT22;6732;51.044;3.746;2022-09-09T13:46:35;19.60;99.90
13326;DHT22;6732;51.044;3.746;2022-09-09T13:51:40;19.60;99.90
13326;DHT22;6732;51.044;3.746;2022-09-09T13:54:11;19.60;99.90
13326;DHT22;6732;51.044;3.746;2022-09-09T13:56:38;19.60;99.90
13326;DHT22;6732;51.044;3.746;2022-09-09T13:59:09;19.60;99.90
13326;DHT22;6732;51.044;3.746;2022-09-09T14:01:36;19.60;99.90
13326;DHT22;6732;51.044;3.746;2022-09-09T14:04:03;19.60;99.90
13326;DHT22;6732;51.044;3.746;2022-09-09T14:06:32;19.60;99.90
13326;DHT22;6732;51.044;3.746;2022-09-09T14:09:00;19.60;99.90
13326;DHT22;6732;51.044;3.746;2022-09-09T14:11:26;19.60;99.90
13326;DHT22;6732;51.044;3.746;2022-09-09T14:13:52;19.60;99.90
13326;DHT22;6732;51.044;3.746;2022-09-09T14:16:19;19.60;99.90
13326;DHT22;6732;51.044;3.746;2022-09-09T14:18:46;19.60;99.90
13326;DHT22;6732;51.044;3.746;2022-09-09T14:21:12;19.60;99.90
13326;DHT22;6732;51.044;3.746;2022-09-09T14:23:38;19.60;99.90
13326;DHT22;6732;51.044;3.746;2022-09-09T14:26:08;19.60;99.90
13326;DHT22;6732;51.044;3.746;2022-09-09T14:28:35;19.60;99.90
13326;DHT22;6732;51.044;3.746;2022-09-09T14:31:03;19.60;99.90
13326;DHT22;6732;51.044;3.746;2022-09-09T14:33:30;19.60;99.90
13326;DHT22;6732;51.044;3.746;2022-09-09T14:35:57;19.60;99.90
13326;DHT22;6732;51.044;3.746;2022-09-09T14:38:24;19.70;99.90
13326;DHT22;6732;51.044;3.746;2022-09-09T14:40:50;19.70;99.90
13326;DHT22;6732;51.044;3.746;2022-09-09T14:43:16;19.70;99.90
13326;DHT22;6732;51.044;3.746;2022-09-09T14:45:42;19.70;99.90
13326;DHT22;6732;51.044;3.746;2022-09-09T14:48:09;19.70;99.90
13326;DHT22;6732;51.044;3.746;2022-09-09T14:50:35;19.80;99.90
13326;DHT22;6732;51.044;3.746;2022-09-09T14:53:05;19.80;99.90
13326;DHT22;6732;51.044;3.746;2022-09-09T14:55:31;19.80;99.90
13326;DHT22;6732;51.044;3.746;2022-09-09T14:57:57;19.80;99.90
13326;DHT22;6732;51.044;3.746;2022-09-09T15:00:24;19.80;99.90
13326;DHT22;6732;51.044;3.746;2022-09-09T15:02:54;19.90;99.90
13326;DHT22;6732;51.044;3.746;2022-09-09T15:05:20;19.90;99.90
13326;DHT22;6732;51.044;3.746;2022-09-09T15:07:46;19.90;99.90
13326;DHT22;6732;51.044;3.746;2022-09-09T15:10:14;19.90;99.90
13326;DHT22;6732;51.044;3.746;2022-09-09T15:12:40;19.90;99.90
13326;DHT22;6732;51.044;3.746;2022-09-09T15:15:08;19.90;99.90
13326;DHT22;6732;51.044;3.746;2022-09-09T15:17:34;20.00;99.90
13326;DHT22;6732;51.044;3.746;2022-09-09T15:20:03;19.90;99.90
13326;DHT22;6732;51.044;3.746;2022-09-09T15:22:31;20.00;99.90
13326;DHT22;6732;51.044;3.746;2022-09-09T15:24:57;20.00;99.90
13326;DHT22;6732;51.044;3.746;2022-09-09T15:27:23;20.00;99.90
13326;DHT22;6732;51.044;3.746;2022-09-09T15:29:50;20.00;99.90
13326;DHT22;6732;51.044;3.746;2022-09-09T15:32:17;20.00;99.90
13326;DHT22;6732;51.044;3.746;2022-09-09T15:34:43;20.00;99.90
13326;DHT22;6732;51.044;3.746;2022-09-09T15:37:10;20.00;99.90
13326;DHT22;6732;51.044;3.746;2022-09-09T15:39:39;20.00;99.90
13326;DHT22;6732;51.044;3.746;2022-09-09T15:42:06;20.00;99.90
13326;DHT22;6732;51.044;3.746;2022-09-09T15:44:41;19.90;99.90
13326;DHT22;6732;51.044;3.746;2022-09-09T15:47:10;19.90;99.90
13326;DHT22;6732;51.044;3.746;2022-09-09T15:49:38;19.90;99.90
13326;DHT22;6732;51.044;3.746;2022-09-09T15:52:04;19.90;99.90
13326;DHT22;6732;51.044;3.746;2022-09-09T15:54:35;19.90;99.90
13326;DHT22;6732;51.044;3.746;2022-09-09T15:57:05;19.90;99.90
13326;DHT22;6732;51.044;3.746;2022-09-09T15:59:32;19.90;99.90
13326;DHT22;6732;51.044;3.746;2022-09-09T16:01:59;19.90;99.90
13326;DHT22;6732;51.044;3.746;2022-09-09T16:04:26;19.90;99.90
13326;DHT22;6732;51.044;3.746;2022-09-09T16:06:56;19.90;99.90
13326;DHT22;6732;51.044;3.746;2022-09-09T16:09:24;19.80;99.90
13326;DHT22;6732;51.044;3.746;2022-09-09T16:11:49;19.80;99.90
13326;DHT22;6732;51.044;3.746;2022-09-09T16:14:16;19.80;99.90
13326;DHT22;6732;51.044;3.746;2022-09-09T16:16:43;19.80;99.90
13326;DHT22;6732;51.044;3.746;2022-09-09T16:19:11;19.80;99.90
13326;DHT22;6732;51.044;3.746;2022-09-09T16:21:46;19.80;99.90
13326;DHT22;6732;51.044;3.746;2022-09-09T16:24:15;19.80;99.90
13326;DHT22;6732;51.044;3.746;2022-09-09T16:26:45;19.80;99.90
13326;DHT22;6732;51.044;3.746;2022-09-09T16:29:13;19.80;99.90
13326;DHT22;6732;51.044;3.746;2022-09-09T16:31:40;19.80;99.90
13326;DHT22;6732;51.044;3.746;2022-09-09T16:34:06;19.80;99.90
13326;DHT22;6732;51.044;3.746;2022-09-09T16:36:34;19.80;99.90
13326;DHT22;6732;51.044;3.746;2022-09-09T16:39:04;19.80;99.90
13326;DHT22;6732;51.044;3.746;2022-09-09T16:41:31;19.80;99.90
13326;DHT22;6732;51.044;3.746;2022-09-09T16:43:59;19.80;99.90
13326;DHT22;6732;51.044;3.746;2022-09-09T16:46:27;19.80;99.90
13326;DHT22;6732;51.044;3.746;2022-09-09T16:48:57;19.70;99.90
13326;DHT22;6732;51.044;3.746;2022-09-09T16:51:36;19.70;99.90
13326;DHT22;6732;51.044;3.746;2022-09-09T16:54:05;19.70;99.90
13326;DHT22;6732;51.044;3.746;2022-09-09T16:56:34;19.70;99.90
13326;DHT22;6732;51.044;3.746;2022-09-09T16:59:06;19.70;99.90
13326;DHT22;6732;51.044;3.746;2022-09-09T17:01:35;19.70;99.90
13326;DHT22;6732;51.044;3.746;2022-09-09T17:04:10;19.70;99.90
13326;DHT22;6732;51.044;3.746;2022-09-09T17:06:37;19.70;99.90
13326;DHT22;6732;51.044;3.746;2022-09-09T17:09:06;19.70;99.90
13326;DHT22;6732;51.044;3.746;2022-09-09T17:11:33;19.70;99.90
13326;DHT22;6732;51.044;3.746;2022-09-09T17:13:59;19.70;99.90
13326;DHT22;6732;51.044;3.746;2022-09-09T17:16:28;19.70;99.90
13326;DHT22;6732;51.044;3.746;2022-09-09T17:18:56;19.70;99.90
13326;DHT22;6732;51.044;3.746;2022-09-09T17:21:24;19.60;99.90
13326;DHT22;6732;51.044;3.746;2022-09-09T17:23:52;19.60;99.90
13326;DHT22;6732;51.044;3.746;2022-09-09T17:26:20;19.60;99.90
13326;DHT22;6732;51.044;3.746;2022-09-09T17:28:47;19.60;99.90
13326;DHT22;6732;51.044;3.746;2022-09-09T17:31:17;19.50;99.90
13326;DHT22;6732;51.044;3.746;2022-09-09T17:33:45;19.50;99.90
13326;DHT22;6732;51.044;3.746;2022-09-09T17:36:16;19.50;99.90
13326;DHT22;6732;51.044;3.746;2022-09-09T17:38:42;19.50;99.90
13326;DHT22;6732;51.044;3.746;2022-09-09T17:41:15;19.50;99.90
13326;DHT22;6732;51.044;3.746;2022-09-09T17:43:41;19.40;99.90
13326;DHT22;6732;51.044;3.746;2022-09-09T17:46:13;19.40;99.90
13326;DHT22;6732;51.044;3.746;2022-09-09T17:48:40;19.40;99.90
13326;DHT22;6732;51.044;3.746;2022-09-09T17:51:08;19.40;99.90
13326;DHT22;6732;51.044;3.746;2022-09-09T17:53:40;19.40;99.90
13326;DHT22;6732;51.044;3.746;2022-09-09T17:56:09;19.40;99.90
13326;DHT22;6732;51.044;3.746;2022-09-09T17:58:36;19.40;99.90
13326;DHT22;6732;51.044;3.746;2022-09-09T18:01:11;19.30;99.90
13326;DHT22;6732;51.044;3.746;2022-09-09T18:03:38;19.30;99.90
13326;DHT22;6732;51.044;3.746;2022-09-09T18:06:07;19.30;99.90
13326;DHT22;6732;51.044;3.746;2022-09-09T18:08:34;19.30;99.90
13326;DHT22;6732;51.044;3.746;2022-09-09T18:11:01;19.30;99.90
13326;DHT22;6732;51.044;3.746;2022-09-09T18:13:28;19.30;99.90
13326;DHT22;6732;51.044;3.746;2022-09-09T18:15:55;19.20;99.90